Time;durP1;ratioP1;P1;durP2;ratioP2;P2;SDS_P1;SDS_P2;PMS_P1;PMS_P2;Temp;Humidity;BMP_temperature;BMP_pressure;BME280_temperature;BME280_humidity;BME280_pressure;Samples;Min_cycle;Max_cycle;Signal;HPM_P1;HPM_P2
2022/11/24 00:02:00;;;;;;;;;21.00;15.75;;;;;10.86;77.91;100365.59;4955306;28;45406;-71
2022/11/24 00:04:25;;;;;;;;;13.00;11.75;;;;;11.07;78.10;100403.56;4955008;28;45565;-71
2022/11/24 00:06:52;;;;;;;;;34.50;30.00;;;;;11.05;78.08;100408.75;4955684;28;46219;-71
2022/11/24 00:09:18;;;;;;;;;13.25;10.50;;;;;10.71;78.30;100357.34;4955804;28;45481;-83
2022/11/24 00:11:44;;;;;;;;;4.33;3.67;;;;;10.91;78.34;100402.28;4955775;28;45906;-83
2022/11/24 00:14:10;;;;;;;;;2.33;1.67;;;;;10.64;78.54;100376.28;4954310;28;46008;-82
2022/11/24 00:16:37;;;;;;;;;1.33;1.00;;;;;10.79;78.96;100404.56;4955031;28;45470;-71
2022/11/24 00:19:05;;;;;;;;;2.67;1.00;;;;;10.75;79.10;100396.63;4952536;28;45369;-81
2022/11/24 00:21:31;;;;;;;;;2.33;1.33;;;;;10.72;79.44;100390.44;4954875;28;45836;-78
2022/11/24 00:23:57;;;;;;;;;1.00;1.00;;;;;10.69;79.28;100387.75;4954435;28;45397;-79
2022/11/24 00:26:28;;;;;;;;;1.00;1.00;;;;;10.73;79.38;100395.72;4951816;28;45415;-79
2022/11/24 00:28:57;;;;;;;;;2.33;2.00;;;;;10.70;79.22;100392.13;4954767;28;45515;-80
2022/11/24 00:31:26;;;;;;;;;5.25;4.00;;;;;10.64;79.11;100392.84;4952175;28;45464;-73
2022/11/24 00:33:55;;;;;;;;;9.00;5.00;;;;;10.56;79.14;100396.97;4954367;28;46111;-75
2022/11/24 00:36:23;;;;;;;;;5.67;4.67;;;;;10.58;79.39;100397.91;4954338;28;45533;-80
2022/11/24 00:38:57;;;;;;;;;16.00;13.25;;;;;10.54;79.02;100396.97;4954365;28;45950;-71
2022/11/24 00:41:23;;;;;;;;;11.00;9.00;;;;;10.51;79.09;100402.09;4951824;28;45572;-73
2022/11/24 00:43:49;;;;;;;;;7.33;5.33;;;;;10.48;79.23;100399.38;4953964;28;46061;-72
2022/11/24 00:46:14;;;;;;;;;3.33;3.00;;;;;10.27;79.24;100373.53;4954091;28;45356;-71
2022/11/24 00:48:40;;;;;;;;;2.33;1.00;;;;;10.32;79.50;100376.28;4953026;28;45547;-71
2022/11/24 00:51:08;;;;;;;;;4.00;2.00;;;;;10.53;79.56;100402.13;4954533;28;45543;-72
2022/11/24 00:53:35;;;;;;;;;12.00;10.00;;;;;10.38;79.48;100376.47;4954351;28;46111;-71
2022/11/24 00:56:02;;;;;;;;;49.00;40.00;;;;;10.59;79.43;100402.31;4954384;28;45385;-72
2022/11/24 00:58:29;;;;;;;;;18.50;13.00;;;;;10.63;79.04;100400.66;4955800;28;45544;-71
2022/11/24 01:00:55;;;;;;;;;23.75;18.50;;;;;10.66;78.93;100399.00;4956018;28;45346;-71
2022/11/24 01:03:21;;;;;;;;;31.25;27.00;;;;;10.70;78.66;100399.97;4955218;28;46191;-71
2022/11/24 01:05:47;;;;;;;;;33.25;28.00;;;;;10.74;78.42;100401.81;4955492;28;45175;-71
2022/11/24 01:08:13;;;;;;;;;39.75;30.75;;;;;10.79;78.24;100395.00;4955681;28;45184;-82
2022/11/24 01:10:38;;;;;;;;;52.75;41.75;;;;;10.85;77.85;100389.94;4955846;28;45291;-71
2022/11/24 01:13:04;;;;;;;;;17.25;14.75;;;;;10.92;77.67;100388.34;4954911;28;45425;-71
2022/11/24 01:15:30;;;;;;;;;8.00;7.25;;;;;10.95;77.27;100386.72;4955649;28;45479;-71
2022/11/24 01:17:56;;;;;;;;;5.67;4.00;;;;;10.79;76.89;100352.31;4955810;28;45488;-72
2022/11/24 01:20:22;;;;;;;;;7.00;5.00;;;;;10.73;76.91;100339.97;4955758;28;45434;-72
2022/11/24 01:22:48;;;;;;;;;4.00;3.33;;;;;10.79;76.75;100358.41;4955567;28;46188;-72
2022/11/24 01:25:14;;;;;;;;;28.50;25.75;;;;;10.69;77.25;100348.56;4955519;28;45768;-72
2022/11/24 01:27:40;;;;;;;;;21.50;20.75;;;;;10.79;77.58;100374.09;4955555;28;45300;-72
2022/11/24 01:30:06;;;;;;;;;13.00;10.00;;;;;10.78;77.24;100372.31;4955955;28;45659;-72
2022/11/24 01:32:32;;;;;;;;;3.33;3.00;;;;;10.78;77.29;100377.53;4955226;28;45511;-72
2022/11/24 01:34:58;;;;;;;;;2.67;2.00;;;;;10.80;76.75;100377.59;4955234;28;45488;-72
2022/11/24 01:37:24;;;;;;;;;3.67;2.00;;;;;10.83;76.87;100381.16;4955573;28;45856;-72
2022/11/24 01:39:50;;;;;;;;;2.00;2.00;;;;;10.82;76.61;100379.38;4955525;28;45425;-72
2022/11/24 01:42:15;;;;;;;;;3.00;2.00;;;;;10.78;75.92;100366.22;4954962;28;45979;-72
2022/11/24 01:44:41;;;;;;;;;3.33;2.00;;;;;10.95;76.08;100380.59;4955014;28;45526;-72
2022/11/24 01:47:32;;;;;;;;;5.33;1.00;;;;;11.01;75.58;100382.50;4955569;28;45484;-72
2022/11/24 01:50:00;;;;;;;;;2.00;2.00;;;;;11.06;75.34;100388.72;4955568;28;45267;-71
2022/11/24 01:52:31;;;;;;;;;4.33;4.00;;;;;11.13;74.79;100382.81;4954691;28;46115;-71
2022/11/24 01:55:00;;;;;;;;;3.00;2.00;;;;;11.19;74.39;100384.69;4955163;28;45195;-81
2022/11/24 01:57:31;;;;;;;;;2.33;1.67;;;;;11.24;74.39;100393.50;4955012;28;45297;-71
2022/11/24 02:00:03;;;;;;;;;1.33;1.00;;;;;11.29;73.72;100397.13;4955051;28;45169;-71
2022/11/24 02:02:29;;;;;;;;;1.00;1.00;;;;;11.23;73.69;100370.84;4954778;28;45490;-76
2022/11/24 02:04:58;;;;;;;;;3.00;1.00;;;;;11.38;73.69;100388.63;4954452;28;45530;-71
2022/11/24 02:07:25;;;;;;;;;2.33;2.00;;;;;11.33;73.41;100386.78;4954998;28;45517;-71
2022/11/24 02:09:54;;;;;;;;;1.67;1.00;;;;;11.33;73.81;100397.25;4955110;28;45824;-71
2022/11/24 02:12:25;;;;;;;;;1.00;1.00;;;;;11.33;73.57;100392.00;4954547;28;46013;-71
2022/11/24 02:14:53;;;;;;;;;2.00;0.00;;;;;11.30;73.91;100375.34;4954786;28;45460;-71
2022/11/24 02:17:18;;;;;;;;;1.33;0.00;;;;;11.23;74.08;100368.22;4954893;28;45437;-71
2022/11/24 02:19:56;;;;;;;;;0.00;0.00;;;;;11.13;73.93;100367.13;4954726;28;45378;-71
2022/11/24 02:22:32;;;;;;;;;0.33;0.33;;;;;11.12;74.29;100374.09;4954757;28;46157;-71
2022/11/24 02:25:19;;;;;;;;;1.00;0.00;;;;;11.11;74.45;100377.53;4955648;28;45349;-70
2022/11/24 02:27:45;;;;;;;;;1.00;0.00;;;;;11.08;74.21;100374.84;4957786;28;45284;-71
2022/11/24 02:30:10;;;;;;;;;1.00;1.00;;;;;11.06;74.14;100363.47;4958379;28;45316;-71
2022/11/24 02:32:40;;;;;;;;;1.00;0.00;;;;;11.06;74.19;100366.09;4957434;28;45628;-71
2022/11/24 02:35:07;;;;;;;;;1.33;0.67;;;;;11.03;73.88;100372.97;4957620;28;45448;-71
2022/11/24 02:37:33;;;;;;;;;1.00;1.00;;;;;11.01;74.06;100372.03;4957640;28;45488;-78
2022/11/24 02:39:59;;;;;;;;;0.00;0.00;;;;;11.03;73.60;100375.56;4957682;28;45544;-71
2022/11/24 02:42:27;;;;;;;;;2.00;0.67;;;;;11.01;73.59;100372.03;4957383;28;46125;-71
2022/11/24 02:44:58;;;;;;;;;0.33;0.33;;;;;11.02;73.44;100368.56;4957353;28;45875;-71
2022/11/24 02:47:23;;;;;;;;;2.00;0.67;;;;;11.01;73.33;100359.84;4957529;28;45426;-71
2022/11/24 02:49:49;;;;;;;;;0.00;0.00;;;;;10.74;73.24;100319.13;4957534;28;45484;-71
2022/11/24 02:52:14;;;;;;;;;1.00;0.00;;;;;10.97;73.33;100360.63;4957190;28;45971;-71
2022/11/24 02:54:40;;;;;;;;;2.00;0.00;;;;;11.00;73.38;100350.25;4957669;28;45443;-71
2022/11/24 02:57:05;;;;;;;;;0.00;0.00;;;;;10.84;72.69;100322.84;4957663;28;45288;-71
2022/11/24 02:59:31;;;;;;;;;0.67;0.00;;;;;10.95;72.89;100350.13;4957685;28;45471;-71
2022/11/24 03:01:56;;;;;;;;;2.00;1.00;;;;;10.92;72.70;100342.22;4957323;28;45456;-72
2022/11/24 03:04:22;;;;;;;;;0.00;0.00;;;;;10.87;72.73;100354.28;4957396;28;45495;-71
2022/11/24 03:06:48;;;;;;;;;1.33;1.00;;;;;10.81;73.23;100359.34;4957401;28;45574;-72
2022/11/24 03:09:13;;;;;;;;;0.00;0.00;;;;;10.77;73.14;100362.72;4957800;28;45296;-71
2022/11/24 03:11:39;;;;;;;;;1.00;0.00;;;;;10.73;73.31;100366.97;4956978;28;46065;-71
2022/11/24 03:14:05;;;;;;;;;1.33;1.00;;;;;10.70;73.54;100368.63;4957195;28;45749;-71
2022/11/24 03:16:31;;;;;;;;;0.33;0.00;;;;;10.68;73.81;100380.75;4957221;28;45370;-71
2022/11/24 03:18:57;;;;;;;;;0.00;0.00;;;;;10.65;73.60;100375.47;4957369;28;45460;-71
2022/11/24 03:21:22;;;;;;;;;0.00;0.00;;;;;10.60;73.97;100372.69;4956218;28;45377;-71
2022/11/24 03:23:48;;;;;;;;;0.00;0.00;;;;;10.58;74.34;100376.13;4957514;28;45351;-72
2022/11/24 03:26:16;;;;;;;;;0.00;0.00;;;;;10.54;73.97;100380.38;4957479;28;45497;-71
2022/11/24 03:28:42;;;;;;;;;1.00;0.00;;;;;10.49;74.02;100380.25;4957444;28;45448;-72
2022/11/24 03:31:08;;;;;;;;;0.00;0.00;;;;;10.46;74.13;100374.94;4956831;28;46242;-71
2022/11/24 03:33:35;;;;;;;;;2.67;2.67;;;;;10.42;74.20;100367.88;4956640;28;45442;-71
2022/11/24 03:36:01;;;;;;;;;8.75;5.50;;;;;10.38;74.32;100365.13;4956137;28;45584;-71
2022/11/24 03:38:26;;;;;;;;;14.25;12.25;;;;;10.34;74.43;100367.69;4956986;28;45420;-71
2022/11/24 03:40:52;;;;;;;;;15.00;10.50;;;;;10.30;74.77;100371.00;4956745;28;45502;-71
2022/11/24 03:43:17;;;;;;;;;4.75;3.75;;;;;10.16;74.90;100357.53;4956615;28;46030;-71
2022/11/24 03:45:48;;;;;;;;;4.00;3.00;;;;;10.24;74.92;100372.53;4957074;28;45484;-72
2022/11/24 03:48:15;;;;;;;;;4.33;4.33;;;;;10.21;74.67;100375.09;4957224;28;45401;-72
2022/11/24 03:50:40;;;;;;;;;5.33;4.00;;;;;9.98;74.77;100338.75;4956667;28;45348;-71
2022/11/24 03:53:06;;;;;;;;;5.25;5.00;;;;;10.15;74.97;100374.06;4956583;28;45472;-71
2022/11/24 03:55:32;;;;;;;;;4.00;3.00;;;;;10.14;74.94;100363.56;4956952;28;45853;-72
2022/11/24 03:57:57;;;;;;;;;1.00;1.00;;;;;10.11;74.88;100360.88;4957125;28;45703;-71
2022/11/24 04:00:23;;;;;;;;;1.00;1.00;;;;;10.09;74.93;100363.44;4956399;28;46203;-71
2022/11/24 04:02:48;;;;;;;;;0.00;0.00;;;;;10.08;74.99;100366.88;4956596;28;45493;-71
2022/11/24 04:05:14;;;;;;;;;0.67;0.00;;;;;10.09;74.93;100359.97;4957039;28;45423;-71
2022/11/24 04:07:40;;;;;;;;;0.00;0.00;;;;;10.09;74.56;100339.06;4956921;28;45303;-83
2022/11/24 04:10:06;;;;;;;;;0.00;0.00;;;;;10.09;74.65;100332.13;4956465;28;45439;-78
2022/11/24 04:12:43;;;;;;;;;1.00;0.00;;;;;10.17;74.08;100334.94;4956233;28;45484;-74
2022/11/24 04:15:10;;;;;;;;;2.67;2.00;;;;;10.18;74.33;100336.72;4956273;28;45467;-82
2022/11/24 04:17:36;;;;;;;;;2.00;0.00;;;;;10.11;74.18;100321.72;4956372;28;45479;-71
2022/11/24 04:20:02;;;;;;;;;3.33;1.33;;;;;10.09;73.88;100306.03;4955989;28;45489;-71
2022/11/24 04:22:28;;;;;;;;;0.00;0.00;;;;;10.32;73.58;100327.56;4956518;28;45452;-82
2022/11/24 04:24:54;;;;;;;;;1.67;1.00;;;;;10.46;72.90;100342.72;4956380;28;45293;-81
2022/11/24 04:27:19;;;;;;;;;0.00;0.00;;;;;10.47;72.45;100326.22;4956432;28;45414;-71
2022/11/24 04:29:45;;;;;;;;;2.00;1.00;;;;;10.60;72.08;100348.31;4956361;28;45303;-71
2022/11/24 04:32:10;;;;;;;;;1.00;0.00;;;;;10.62;72.36;100354.47;4956108;28;45731;-82
2022/11/24 04:34:36;;;;;;;;;0.67;0.67;;;;;10.47;72.13;100329.72;4956507;28;45387;-82
2022/11/24 04:37:02;;;;;;;;;1.00;0.67;;;;;10.60;72.09;100335.25;4956425;28;45388;-71
2022/11/24 04:39:28;;;;;;;;;0.00;0.00;;;;;10.59;72.14;100350.06;4955983;28;45556;-71
2022/11/24 04:41:53;;;;;;;;;0.00;0.00;;;;;10.54;72.68;100349.03;4955936;28;45456;-71
2022/11/24 04:44:19;;;;;;;;;0.00;0.00;;;;;10.36;73.03;100338.97;4956474;28;45421;-71
2022/11/24 04:46:44;;;;;;;;;0.00;0.00;;;;;10.29;73.34;100340.50;4956814;28;45378;-71
2022/11/24 04:49:10;;;;;;;;;1.00;1.00;;;;;10.21;73.64;100335.94;4954777;28;46223;-71
2022/11/24 04:51:39;;;;;;;;;1.00;1.00;;;;;10.14;74.10;100330.50;4956038;28;45513;-71
2022/11/24 04:54:06;;;;;;;;;0.67;0.00;;;;;9.96;74.15;100310.00;4956125;28;45250;-71
2022/11/24 04:56:32;;;;;;;;;1.67;1.33;;;;;9.86;74.46;100291.44;4956150;28;45419;-71
2022/11/24 04:58:59;;;;;;;;;3.00;1.00;;;;;9.80;74.03;100283.44;4955793;28;46190;-71
2022/11/24 05:01:24;;;;;;;;;0.00;0.00;;;;;10.03;73.40;100321.50;4956072;28;45435;-80
2022/11/24 05:03:53;;;;;;;;;1.00;0.00;;;;;10.10;73.49;100328.66;4956034;28;45504;-71
2022/11/24 05:06:19;;;;;;;;;2.67;1.00;;;;;10.15;72.36;100327.06;4956310;28;45527;-71
2022/11/24 05:08:48;;;;;;;;;1.33;1.00;;;;;10.18;72.29;100328.88;4955590;28;46047;-72
2022/11/24 05:11:14;;;;;;;;;1.67;0.00;;;;;10.18;72.54;100328.00;4955787;28;45355;-71
2022/11/24 05:13:39;;;;;;;;;2.00;1.00;;;;;10.15;72.39;100328.81;4955584;28;45338;-71
2022/11/24 05:16:05;;;;;;;;;2.00;1.00;;;;;10.12;73.07;100336.53;4956146;28;45421;-72
2022/11/24 05:18:31;;;;;;;;;1.67;0.67;;;;;9.91;72.82;100313.34;4955636;28;45870;-72
2022/11/24 05:20:57;;;;;;;;;2.00;0.00;;;;;10.08;72.77;100340.78;4955432;28;45500;-71
2022/11/24 05:23:23;;;;;;;;;1.00;0.00;;;;;10.08;72.71;100343.38;4955600;28;45466;-71
2022/11/24 05:25:49;;;;;;;;;1.00;0.00;;;;;10.10;72.37;100343.44;4956004;28;45481;-72
2022/11/24 05:28:16;;;;;;;;;1.00;1.00;;;;;10.01;71.75;100323.19;4955303;28;45867;-71
2022/11/24 05:30:42;;;;;;;;;0.33;0.33;;;;;9.92;71.86;100302.91;4955402;28;45460;-72
2022/11/24 05:33:11;;;;;;;;;2.00;1.00;;;;;10.09;71.59;100321.69;4955537;28;45194;-71
2022/11/24 05:35:37;;;;;;;;;1.00;1.00;;;;;10.13;71.86;100317.44;4955921;28;45297;-71
2022/11/24 05:38:03;;;;;;;;;0.00;0.00;;;;;10.20;71.43;100318.47;4955410;28;45457;-72
2022/11/24 05:40:30;;;;;;;;;2.00;1.00;;;;;10.28;70.32;100312.63;4955323;28;45234;-72
2022/11/24 05:42:56;;;;;;;;;2.67;2.00;;;;;10.28;70.42;100316.97;4955359;28;45516;-82
2022/11/24 05:45:21;;;;;;;;;1.67;1.00;;;;;10.33;70.32;100326.72;4955739;28;45307;-73
2022/11/24 05:47:48;;;;;;;;;3.00;2.67;;;;;10.38;70.19;100328.56;4954154;28;45348;-83
2022/11/24 05:50:16;;;;;;;;;1.00;0.33;;;;;10.42;69.92;100322.59;4955786;28;45503;-72
2022/11/24 05:52:41;;;;;;;;;2.00;2.00;;;;;10.47;69.84;100316.66;4955417;28;45419;-80
2022/11/24 05:55:08;;;;;;;;;3.00;2.00;;;;;10.54;70.09;100318.59;4956272;28;45330;-72
2022/11/24 05:57:34;;;;;;;;;3.00;2.00;;;;;10.60;69.85;100320.47;4954991;28;46239;-73
2022/11/24 06:00:00;;;;;;;;;2.00;1.00;;;;;10.65;69.69;100323.22;4956474;28;45634;-72
2022/11/24 06:02:25;;;;;;;;;1.67;1.00;;;;;10.63;69.21;100314.47;4958346;28;45402;-72
2022/11/24 06:04:51;;;;;;;;;4.00;2.00;;;;;10.85;68.21;100323.72;4958969;28;45224;-83
2022/11/24 06:07:17;;;;;;;;;0.00;0.00;;;;;10.91;68.28;100309.06;4957952;28;45520;-84
2022/11/24 06:09:43;;;;;;;;;1.00;0.33;;;;;10.92;68.44;100313.47;4958229;28;45363;-72
2022/11/24 06:12:10;;;;;;;;;1.00;1.00;;;;;10.98;68.41;100306.59;4957971;28;45298;-73
2022/11/24 06:14:36;;;;;;;;;2.00;0.67;;;;;11.02;68.03;100292.75;4956769;28;45345;-72
2022/11/24 06:17:03;;;;;;;;;1.00;1.00;;;;;10.89;67.65;100262.84;4957871;28;45529;-73
2022/11/24 06:19:28;;;;;;;;;4.00;3.33;;;;;11.10;67.67;100297.34;4957700;28;45361;-72
2022/11/24 06:21:54;;;;;;;;;9.75;8.50;;;;;11.10;67.83;100292.13;4958066;28;45496;-72
2022/11/24 06:24:19;;;;;;;;;7.50;7.00;;;;;11.10;68.12;100302.56;4957005;28;46128;-71
2022/11/24 06:26:45;;;;;;;;;9.75;9.00;;;;;11.11;68.32;100303.44;4957702;28;46110;-83
2022/11/24 06:29:11;;;;;;;;;10.50;9.50;;;;;11.08;68.05;100298.13;4958444;28;45482;-82
2022/11/24 06:31:36;;;;;;;;;7.67;6.00;;;;;10.99;67.55;100285.75;4958300;28;45324;-72
2022/11/24 06:34:06;;;;;;;;;4.33;4.00;;;;;11.16;67.66;100325.38;4957781;28;45491;-79
2022/11/24 06:36:31;;;;;;;;;5.33;3.67;;;;;11.18;67.79;100318.44;4957492;28;45770;-82
2022/11/24 06:38:59;;;;;;;;;27.50;24.00;;;;;11.20;67.23;100318.47;4957384;28;45549;-72
2022/11/24 06:41:24;;;;;;;;;13.75;11.00;;;;;11.21;67.85;100313.28;4957819;28;45525;-72
2022/11/24 06:43:50;;;;;;;;;5.25;4.00;;;;;11.20;67.63;100311.53;4957877;28;46103;-72
2022/11/24 06:46:15;;;;;;;;;3.00;2.00;;;;;11.11;67.69;100295.59;4957392;28;45866;-72
2022/11/24 06:48:41;;;;;;;;;11.25;9.75;;;;;11.11;67.92;100293.88;4957296;28;45470;-83
2022/11/24 06:51:09;;;;;;;;;41.75;36.00;;;;;11.00;68.02;100273.53;4957284;28;45549;-71
2022/11/24 06:53:37;;;;;;;;;26.50;23.50;;;;;11.08;68.27;100309.50;4957452;28;45307;-77
2022/11/24 06:56:07;;;;;;;;;18.25;17.75;;;;;11.07;68.55;100291.16;4957009;28;45573;-82
2022/11/24 06:58:33;;;;;;;;;13.00;12.00;;;;;11.06;68.63;100285.06;4957199;28;45319;-71
2022/11/24 07:00:59;;;;;;;;;14.00;12.25;;;;;11.07;68.57;100281.56;4957341;28;45525;-72
2022/11/24 07:03:24;;;;;;;;;10.25;9.75;;;;;10.96;68.38;100259.50;4957716;28;45313;-71
2022/11/24 07:05:59;;;;;;;;;12.25;10.75;;;;;11.11;68.39;100277.31;4957174;28;45336;-73
2022/11/24 07:08:25;;;;;;;;;15.50;13.25;;;;;11.09;68.33;100264.19;4957295;28;45336;-72
2022/11/24 07:10:54;;;;;;;;;7.25;6.50;;;;;11.14;68.26;100273.03;4956470;28;45355;-72
2022/11/24 07:13:19;;;;;;;;;4.00;4.00;;;;;11.16;67.99;100273.09;4957098;28;45418;-72
2022/11/24 07:15:45;;;;;;;;;18.25;18.25;;;;;11.17;68.42;100276.56;4956756;28;45856;-72
2022/11/24 07:18:11;;;;;;;;;30.50;26.50;;;;;11.13;68.90;100283.44;4957229;28;45421;-72
2022/11/24 07:20:37;;;;;;;;;10.75;8.25;;;;;11.10;69.03;100284.28;4956711;28;45549;-83
2022/11/24 07:23:02;;;;;;;;;10.25;6.50;;;;;11.02;69.33;100282.31;4957231;28;45469;-83
2022/11/24 07:25:28;;;;;;;;;8.00;7.00;;;;;11.01;69.64;100285.78;4957194;28;45345;-83
2022/11/24 07:27:58;;;;;;;;;6.00;5.50;;;;;11.04;69.65;100285.84;4956928;28;45258;-83
2022/11/24 07:30:24;;;;;;;;;7.50;5.50;;;;;10.93;69.72;100265.56;4957139;28;45450;-79
2022/11/24 07:32:50;;;;;;;;;5.75;4.00;;;;;10.82;69.88;100248.72;4957360;28;45475;-81
2022/11/24 07:35:16;;;;;;;;;5.00;4.00;;;;;10.83;69.46;100253.13;4956776;28;46078;-81
2022/11/24 07:37:42;;;;;;;;;4.00;2.67;;;;;10.92;69.36;100249.84;4957355;28;45485;-83
2022/11/24 07:40:08;;;;;;;;;3.33;3.00;;;;;11.15;68.66;100277.41;4957495;28;45334;-83
2022/11/24 07:42:34;;;;;;;;;8.00;6.50;;;;;11.21;69.02;100281.91;4957257;28;45507;-82
2022/11/24 07:44:59;;;;;;;;;6.00;4.75;;;;;11.21;69.05;100260.09;4956905;28;45882;-83
2022/11/24 07:47:25;;;;;;;;;5.00;4.00;;;;;11.30;69.01;100268.13;4956736;28;45329;-81
2022/11/24 07:49:50;;;;;;;;;5.67;5.00;;;;;11.34;68.70;100270.88;4956920;28;45179;-83
2022/11/24 07:52:16;;;;;;;;;5.00;4.00;;;;;11.38;68.46;100258.75;4956975;28;45422;-83
2022/11/24 07:54:41;;;;;;;;;4.00;3.00;;;;;11.36;68.05;100247.38;4956913;28;46051;-79
2022/11/24 07:57:07;;;;;;;;;52.00;40.25;;;;;11.42;68.17;100244.00;4956543;28;45345;-82
2022/11/24 07:59:32;;;;;;;;;19.25;17.75;;;;;11.55;67.74;100256.50;4956114;28;45427;-81
2022/11/24 08:01:58;;;;;;;;;22.25;19.75;;;;;11.62;67.82;100262.72;4956215;28;45545;-72
2022/11/24 08:04:23;;;;;;;;;12.50;12.50;;;;;11.68;67.82;100262.88;4955533;28;45840;-72
2022/11/24 08:06:49;;;;;;;;;18.50;15.25;;;;;11.61;67.58;100224.34;4953929;28;45182;-73
2022/11/24 08:09:15;;;;;;;;;21.00;18.50;;;;;11.81;67.46;100241.31;4955855;28;45339;-78
2022/11/24 08:11:40;;;;;;;;;35.75;33.00;;;;;11.88;67.60;100234.50;4955863;28;45464;-76
2022/11/24 08:14:06;;;;;;;;;51.25;42.75;;;;;11.93;66.93;100243.34;4955389;28;45404;-83
2022/11/24 08:16:31;;;;;;;;;4.00;3.00;;;;;11.74;66.07;100208.94;4955922;28;45490;-72
2022/11/24 08:18:57;;;;;;;;;23.50;21.25;;;;;12.02;66.83;100255.75;4955749;28;45786;-71
2022/11/24 08:21:23;;;;;;;;;20.25;18.25;;;;;12.06;66.90;100265.41;4955658;28;45368;-71
2022/11/24 08:23:49;;;;;;;;;15.50;13.00;;;;;12.06;66.70;100263.69;4955120;28;46110;-83
2022/11/24 08:26:17;;;;;;;;;4.33;3.33;;;;;11.98;64.92;100254.78;4955648;28;45369;-83
2022/11/24 08:28:45;;;;;;;;;27.50;26.00;;;;;12.06;66.41;100253.19;4955525;28;45619;-74
2022/11/24 08:31:13;;;;;;;;;6.00;5.33;;;;;12.20;66.05;100240.38;4955691;28;45462;-83
2022/11/24 08:33:39;;;;;;;;;7.00;7.00;;;;;12.37;66.23;100224.94;4955389;28;46223;-81
2022/11/24 08:36:08;;;;;;;;;10.50;10.00;;;;;12.65;66.01;100228.03;4955219;28;45381;-72
2022/11/24 08:38:34;;;;;;;;;15.00;11.75;;;;;12.82;65.50;100223.94;4954902;28;45429;-71
2022/11/24 08:41:06;;;;;;;;;13.75;13.75;;;;;12.87;65.32;100219.69;4957800;28;46714;-73
2022/11/24 08:43:31;;;;;;;;;11.25;10.25;;;;;12.82;66.00;100226.56;4954266;28;45277;-82
2022/11/24 08:46:02;;;;;;;;;8.33;7.00;;;;;13.00;66.28;100236.47;4954785;28;45413;-83
2022/11/24 08:48:28;;;;;;;;;6.00;6.00;;;;;13.12;64.96;100236.63;4952818;28;45248;-84
2022/11/24 08:50:54;;;;;;;;;7.00;5.33;;;;;13.29;65.15;100228.13;4955607;28;46002;-84
2022/11/24 08:53:20;;;;;;;;;15.75;14.00;;;;;13.43;65.36;100224.00;4954950;28;46263;-81
2022/11/24 08:55:45;;;;;;;;;9.00;9.00;;;;;13.67;64.92;100231.28;4955007;28;45360;-84
2022/11/24 08:58:11;;;;;;;;;5.67;5.33;;;;;13.72;64.02;100215.59;4955333;28;45350;-85
2022/11/24 09:00:37;;;;;;;;;8.00;7.67;;;;;13.65;64.38;100214.66;4957943;28;45173;-88
2022/11/24 09:03:02;;;;;;;;;7.00;6.67;;;;;13.72;63.93;100215.59;4955528;28;45654;-84
2022/11/24 09:05:28;;;;;;;;;9.00;8.00;;;;;13.71;63.78;100216.47;4955314;28;45524;-90
2022/11/24 09:07:53;;;;;;;;;22.75;18.75;;;;;13.69;63.82;100216.44;4955620;28;45291;-88
2022/11/24 09:10:19;;;;;;;;;5.00;3.67;;;;;13.64;62.03;100206.75;4955282;28;45469;-71
2022/11/24 09:12:46;;;;;;;;;5.00;4.00;;;;;13.46;63.34;100173.28;4954784;28;45456;-77
2022/11/24 09:15:12;;;;;;;;;4.00;3.33;;;;;13.51;63.50;100153.25;4955263;28;46561;-72
2022/11/24 09:17:38;;;;;;;;;3.33;2.00;;;;;13.76;62.77;100178.00;4954847;28;45647;-72
2022/11/24 09:20:04;;;;;;;;;3.67;3.00;;;;;13.74;62.77;100148.22;4955178;28;45509;-80
2022/11/24 09:22:30;;;;;;;;;18.50;15.75;;;;;13.70;63.20;100131.56;4954858;28;45555;-77
2022/11/24 09:24:56;;;;;;;;;10.00;7.67;;;;;14.09;63.46;100168.72;4954522;28;45623;-72
2022/11/24 09:27:22;;;;;;;;;8.00;7.00;;;;;14.01;64.23;100131.00;4954123;28;45399;-71
2022/11/24 09:29:48;;;;;;;;;6.00;6.00;;;;;14.28;64.31;100169.75;4955625;28;45436;-85
2022/11/24 09:32:14;;;;;;;;;10.00;10.00;;;;;14.35;64.54;100161.06;4954971;28;45476;-85
2022/11/24 09:34:40;;;;;;;;;8.67;8.67;;;;;14.45;64.40;100170.78;4954590;28;45476;-86
2022/11/24 09:37:05;;;;;;;;;8.33;6.00;;;;;14.42;63.08;100156.75;4956181;28;45549;-87
2022/11/24 09:39:31;;;;;;;;;6.00;4.67;;;;;14.52;62.87;100187.47;4954845;28;45624;-86
2022/11/24 09:42:05;;;;;;;;;8.67;8.00;;;;;14.61;61.44;100181.47;4955777;28;45319;-80
2022/11/24 09:44:55;;;;;;;;;14.00;13.75;;;;;14.69;62.44;100178.00;4954610;28;45353;-73
2022/11/24 09:47:55;;;;;;;;;2.00;1.67;;;;;14.84;61.68;100172.00;4955128;28;45503;-72
2022/11/24 09:50:28;;;;;;;;;3.33;2.00;;;;;14.94;59.85;100174.66;4948303;28;45521;-83
2022/11/24 09:53:04;;;;;;;;;2.00;2.00;;;;;14.88;60.38;100129.06;4954862;28;45316;-85
2022/11/24 09:55:45;;;;;;;;;4.00;3.67;;;;;14.97;60.68;100124.72;4955222;28;45425;-84
2022/11/24 09:58:29;;;;;;;;;17.00;16.67;;;;;15.26;60.31;100154.69;4954866;28;45351;-84
2022/11/24 10:00:56;;;;;;;;;10.33;9.33;;;;;15.31;59.93;100166.09;4955459;28;45508;-82
2022/11/24 10:03:46;;;;;;;;;6.67;5.00;;;;;15.32;59.24;100149.44;4954845;28;46154;-88
2022/11/24 10:06:38;;;;;;;;;6.00;4.33;;;;;15.36;58.26;100154.72;4953977;28;45615;-74
2022/11/24 10:09:32;;;;;;;;;4.00;4.00;;;;;15.37;58.21;100182.81;4955498;28;46009;-85
2022/11/24 10:12:08;;;;;;;;;4.00;3.00;;;;;15.09;59.51;100148.47;4954894;28;45652;-82
2022/11/24 10:14:36;;;;;;;;;5.00;4.33;;;;;15.37;59.35;100190.69;4951838;28;46081;-82
2022/11/24 10:17:47;;;;;;;;;2.67;2.33;;;;;15.36;58.32;100175.75;4954019;28;45330;-72
2022/11/24 10:20:37;;;;;;;;;1.00;1.00;;;;;15.34;57.79;100165.25;4975813;28;45558;-73
2022/11/24 10:23:24;;;;;;;;;5.00;4.67;;;;;15.41;58.47;100163.53;4953104;28;45468;-73
2022/11/24 10:25:54;;;;;;;;;4.33;4.00;;;;;15.46;58.14;100159.16;4955235;28;46390;-80
2022/11/24 10:28:20;;;;;;;;;9.00;7.00;;;;;15.44;58.08;100153.88;4953573;28;45378;-74
2022/11/24 10:30:45;;;;;;;;;11.00;9.67;;;;;15.42;57.72;100137.22;4953637;28;45538;-71
2022/11/24 10:33:19;;;;;;;;;7.00;7.00;;;;;15.63;57.12;100141.66;4953479;28;45382;-75
2022/11/24 10:36:15;;;;;;;;;8.67;7.00;;;;;15.77;57.20;100133.81;4954245;28;45901;-80
2022/11/24 10:38:44;;;;;;;;;5.00;3.00;;;;;15.96;55.01;100133.88;4947698;28;45485;-73
2022/11/24 10:41:33;;;;;;;;;4.67;3.67;;;;;16.04;54.35;100133.00;4956495;28;45456;-79
2022/11/24 10:43:59;;;;;;;;;2.33;2.00;;;;;16.11;54.22;100125.97;4952729;28;45596;-77
2022/11/24 10:46:27;;;;;;;;;3.67;1.67;;;;;16.11;53.02;100125.97;4955800;28;46086;-72
2022/11/24 10:48:57;;;;;;;;;3.33;3.00;;;;;16.10;53.55;100126.84;4956195;28;45479;-74
2022/11/24 10:51:29;;;;;;;;;2.67;1.00;;;;;16.10;54.23;100121.59;4956647;28;45388;-76
2022/11/24 10:54:01;;;;;;;;;2.00;2.00;;;;;15.98;50.62;100090.84;4957354;28;45487;-75
2022/11/24 10:56:41;;;;;;;;;4.00;3.67;;;;;16.05;52.27;100108.38;4956873;28;46014;-80
2022/11/24 10:59:29;;;;;;;;;27.25;23.75;;;;;16.02;52.96;100108.41;4957288;28;45401;-81
2022/11/24 11:01:54;;;;;;;;;14.50;13.25;;;;;16.00;52.09;100115.44;4957537;28;45391;-81
2022/11/24 11:04:32;;;;;;;;;20.00;17.75;;;;;15.99;52.22;100118.06;4957253;28;45267;-76
2022/11/24 11:07:08;;;;;;;;;7.00;5.33;;;;;15.97;52.19;100114.53;4956290;28;45956;-81
2022/11/24 11:09:34;;;;;;;;;4.00;4.00;;;;;15.88;51.78;100099.63;4956907;28;45459;-80
2022/11/24 11:12:18;;;;;;;;;5.67;4.33;;;;;15.86;52.41;100110.13;4956997;28;45330;-81
2022/11/24 11:14:46;;;;;;;;;4.00;4.00;;;;;15.99;52.98;100125.97;4957229;28;45570;-80
2022/11/24 11:17:36;;;;;;;;;4.67;4.00;;;;;15.95;52.99;100130.34;4957373;28;45410;-74
2022/11/24 11:20:25;;;;;;;;;61.00;47.00;;;;;15.99;52.92;100134.72;4955425;28;45507;-73
2022/11/24 11:22:52;;;;;;;;;12.33;9.67;;;;;16.03;53.28;100135.63;4956978;28;45297;-81
2022/11/24 11:25:22;;;;;;;;;7.00;6.33;;;;;16.11;52.99;100128.59;4957148;28;45152;-80
2022/11/24 11:27:48;;;;;;;;;6.67;5.00;;;;;16.20;53.58;100117.19;4956875;28;45856;-79